Time;durP1;ratioP1;P1;durP2;ratioP2;P2;SDS_P1;SDS_P2;PMS_P1;PMS_P2;Temp;Humidity;BMP_temperature;BMP_pressure;BME280_temperature;BME280_humidity;BME280_pressure;Samples;Min_cycle;Max_cycle;Signal;HPM_P1;HPM_P2
2022/08/12 00:44:40;;;;;;;3.10;2.80;;;15.40;4.40;;;;;;5108221;27;34097;-76
2022/08/12 00:47:07;;;;;;;3.97;2.85;;;15.40;5.10;;;;;;5107206;27;35772;-75
2022/08/12 00:49:34;;;;;;;3.20;2.90;;;15.40;4.60;;;;;;5074078;27;34191;-76
2022/08/12 00:52:05;;;;;;;6.03;3.28;;;15.30;4.80;;;;;;5125555;27;34256;-75
2022/08/12 00:54:39;;;;;;;4.90;2.70;;;15.30;5.10;;;;;;5090825;27;34212;-75
2022/08/12 00:57:12;;;;;;;3.47;3.20;;;15.30;6.40;;;;;;5125733;27;34328;-75
2022/08/12 00:59:49;;;;;;;3.15;2.88;;;15.20;6.40;;;;;;5108128;27;34152;-75
2022/08/12 01:02:23;;;;;;;3.50;3.05;;;15.20;8.10;;;;;;5090523;27;34275;-75
2022/08/12 01:13:04;;;;;;;3.30;2.90;;;15.00;5.30;;;;;;5124098;27;34286;-75
2022/08/12 01:15:32;;;;;;;3.13;2.88;;;14.90;6.30;;;;;;5089955;27;34459;-75
2022/08/12 01:17:58;;;;;;;3.05;2.75;;;14.90;5.50;;;;;;5107352;27;35832;-75
2022/08/12 01:20:55;;;;;;;3.42;2.90;;;14.80;5.60;;;;;;5090672;27;34096;-75
2022/08/12 01:23:40;;;;;;;4.57;3.08;;;14.80;9.10;;;;;;5125556;27;34323;-75
2022/08/12 01:26:15;;;;;;;3.33;3.03;;;14.80;8.60;;;;;;5091016;27;34435;-75
2022/08/12 01:28:43;;;;;;;4.00;3.08;;;14.80;6.80;;;;;;5106532;27;35849;-75
2022/08/12 01:31:11;;;;;;;3.50;3.20;;;14.70;6.20;;;;;;5107291;27;34232;-75
2022/08/12 01:33:51;;;;;;;4.03;3.00;;;14.70;6.80;;;;;;5106793;27;34091;-75
2022/08/12 01:36:21;;;;;;;3.03;2.83;;;14.60;8.10;;;;;;5089851;27;34646;-75
2022/08/12 01:38:50;;;;;;;3.75;3.40;;;14.60;6.60;;;;;;5105969;27;36815;-76
2022/08/12 01:41:20;;;;;;;4.60;2.97;;;14.50;6.80;;;;;;5107133;27;34330;-75
2022/08/12 01:43:47;;;;;;;4.80;3.20;;;14.50;7.00;;;;;;5107320;27;34288;-75
2022/08/12 01:46:33;;;;;;;3.88;3.40;;;14.50;6.60;;;;;;5090626;27;34265;-75
2022/08/12 01:49:30;;;;;;;3.70;3.35;;;14.40;9.90;;;;;;5072678;27;35537;-75
2022/08/12 01:52:03;;;;;;;3.63;3.33;;;14.40;10.30;;;;;;5104774;27;34079;-75
2022/08/12 01:54:37;;;;;;;4.00;3.15;;;14.30;7.90;;;;;;5103873;27;34124;-75
2022/08/12 01:57:16;;;;;;;3.55;3.25;;;14.30;8.30;;;;;;5090689;27;34078;-75
2022/08/12 01:59:59;;;;;;;4.00;3.17;;;14.30;9.60;;;;;;5089048;27;35511;-75
2022/08/12 02:02:38;;;;;;;3.83;3.42;;;14.30;8.40;;;;;;5087297;28;34100;-75
2022/08/12 02:11:28;;;;;;;3.83;3.45;;;14.20;11.10;;;;;;5118990;27;34288;-75
2022/08/12 02:14:19;;;;;;;3.60;3.30;;;14.10;9.10;;;;;;5106595;27;34146;-75
2022/08/12 02:16:57;;;;;;;3.85;3.50;;;14.10;10.70;;;;;;5105078;27;34342;-75
2022/08/12 02:19:41;;;;;;;4.13;3.72;;;14.00;9.20;;;;;;5106711;27;34067;-75
2022/08/12 02:22:27;;;;;;;3.50;3.20;;;14.00;10.10;;;;;;5105877;27;36443;-75
2022/08/12 02:25:06;;;;;;;4.20;3.35;;;14.00;11.30;;;;;;5104488;28;34101;-75
2022/08/12 02:27:38;;;;;;;3.22;2.97;;;13.90;9.10;;;;;;5086449;28;34210;-75
2022/08/12 02:30:07;;;;;;;4.05;3.35;;;13.90;8.60;;;;;;5104539;28;34324;-75
2022/08/12 02:32:39;;;;;;;3.60;3.30;;;13.90;8.00;;;;;;5087069;27;36291;-75
2022/08/12 02:35:10;;;;;;;4.57;3.80;;;13.90;9.10;;;;;;5088720;27;34331;-75
2022/08/12 02:37:39;;;;;;;4.70;3.60;;;13.80;8.20;;;;;;5103023;27;34202;-75
2022/08/12 02:40:08;;;;;;;4.18;3.78;;;13.80;8.50;;;;;;5062303;28;34345;-74
2022/08/12 02:42:34;;;;;;;3.70;3.38;;;13.80;8.20;;;;;;5103539;27;35514;-74
2022/08/12 02:45:05;;;;;;;3.70;3.35;;;13.80;8.10;;;;;;5124504;27;34385;-74
2022/08/12 02:47:38;;;;;;;4.45;2.97;;;13.70;9.70;;;;;;5088988;27;34287;-73
2022/08/12 02:50:05;;;;;;;3.63;3.30;;;13.70;8.80;;;;;;5089961;27;34009;-74
2022/08/12 02:52:33;;;;;;;4.35;3.20;;;13.60;8.40;;;;;;5120354;27;35323;-74
2022/08/12 02:55:13;;;;;;;3.83;3.50;;;13.60;8.70;;;;;;5089460;27;34389;-74
2022/08/12 02:57:40;;;;;;;4.20;3.53;;;13.60;9.80;;;;;;5090144;27;34124;-74
2022/08/12 03:00:07;;;;;;;3.92;3.53;;;13.60;8.70;;;;;;5106291;27;34320;-75
2022/08/12 03:02:37;;;;;;;5.03;3.53;;;13.50;8.70;;;;;;5105692;27;36073;-74
2022/08/12 03:05:03;;;;;;;3.58;3.28;;;13.50;8.70;;;;;;5089056;27;34301;-74
2022/08/12 03:07:35;;;;;;;4.10;3.70;;;13.50;8.80;;;;;;5088401;27;34376;-74
2022/08/12 03:10:08;;;;;;;5.47;3.42;;;13.50;8.90;;;;;;5072272;27;34232;-74
2022/08/12 03:12:37;;;;;;;3.83;3.42;;;13.40;9.40;;;;;;5088382;28;35971;-74
2022/08/12 03:15:10;;;;;;;4.03;3.63;;;13.40;9.10;;;;;;5095655;27;34139;-74
2022/08/12 03:18:00;;;;;;;4.20;3.88;;;13.30;9.20;;;;;;5076134;27;34162;-74
2022/08/12 03:20:27;;;;;;;5.22;3.70;;;13.30;13.20;;;;;;5095623;27;34120;-74
2022/08/12 03:22:53;;;;;;;4.93;3.53;;;13.20;8.90;;;;;;5109693;27;36420;-74
2022/08/12 03:25:26;;;;;;;3.90;3.60;;;13.20;9.00;;;;;;5108807;27;34138;-75
2022/08/12 03:27:55;;;;;;;4.20;3.80;;;13.20;9.30;;;;;;5088416;28;34115;-74
2022/08/12 03:30:27;;;;;;;6.13;3.90;;;13.20;9.40;;;;;;5140671;27;34403;-74
2022/08/12 03:32:55;;;;;;;4.07;3.65;;;13.20;10.40;;;;;;5127055;27;34378;-74
2022/08/12 03:35:26;;;;;;;3.78;3.47;;;13.10;9.60;;;;;;5091948;27;34356;-74
2022/08/12 03:37:59;;;;;;;4.82;3.92;;;13.10;9.70;;;;;;5091711;27;34201;-74
2022/08/12 04:02:16;;;;;;;4.80;3.58;;;12.90;10.00;;;;;;5125904;27;34229;-74
2022/08/12 04:04:44;;;;;;;5.32;3.80;;;12.90;12.10;;;;;;5106004;27;36529;-74
2022/08/12 04:07:11;;;;;;;4.82;3.25;;;12.80;10.00;;;;;;5108047;27;34301;-74
2022/08/12 04:09:39;;;;;;;10.65;4.13;;;12.80;10.20;;;;;;5086898;28;34281;-74
2022/08/12 04:14:47;;;;;;;4.43;4.03;;;12.80;10.20;;;;;;5126011;27;34199;-74
2022/08/12 04:17:14;;;;;;;5.40;3.83;;;12.80;10.20;;;;;;5126681;27;34113;-74
2022/08/12 04:19:42;;;;;;;5.68;3.97;;;12.80;10.50;;;;;;5086619;28;34079;-74
2022/08/12 04:22:11;;;;;;;4.00;3.70;;;12.70;10.50;;;;;;5083693;28;34132;-74
2022/08/12 04:24:39;;;;;;;5.40;3.95;;;12.70;10.50;;;;;;5109118;27;34210;-74
2022/08/12 04:27:08;;;;;;;4.82;4.00;;;12.70;10.70;;;;;;5091059;27;34337;-74
2022/08/12 04:29:36;;;;;;;8.25;3.95;;;12.70;10.80;;;;;;5082603;27;34366;-74
2022/08/12 04:32:02;;;;;;;7.28;4.50;;;12.70;10.60;;;;;;5094159;27;34176;-74
2022/08/12 04:34:28;;;;;;;5.18;3.70;;;12.70;10.60;;;;;;5107357;27;36312;-74
2022/08/12 04:36:54;;;;;;;4.00;3.40;;;12.60;10.50;;;;;;5108562;27;34439;-74
2022/08/12 04:39:21;;;;;;;4.00;3.60;;;12.70;10.70;;;;;;5107485;27;34078;-74
2022/08/12 04:41:48;;;;;;;5.72;3.70;;;12.70;10.80;;;;;;5089655;27;34257;-75
2022/08/12 04:44:15;;;;;;;8.77;3.88;;;12.60;10.70;;;;;;5096324;27;35848;-74
2022/08/12 04:46:41;;;;;;;6.85;3.83;;;12.70;10.90;;;;;;5105342;28;34509;-74
2022/08/12 04:49:07;;;;;;;4.22;3.83;;;12.70;10.90;;;;;;5124908;27;34358;-74
2022/08/12 04:51:34;;;;;;;7.18;5.05;;;12.70;10.90;;;;;;5107795;27;34048;-75
2022/08/12 04:54:03;;;;;;;6.25;3.80;;;12.70;10.90;;;;;;5103226;27;36413;-74
2022/08/12 04:56:30;;;;;;;6.13;4.00;;;12.70;11.30;;;;;;5103573;27;34319;-75
2022/08/12 04:58:58;;;;;;;4.30;3.90;;;12.70;11.00;;;;;;5103919;28;34270;-74
2022/08/12 05:01:28;;;;;;;5.18;4.18;;;12.70;11.00;;;;;;5104282;28;34224;-74
2022/08/12 05:03:56;;;;;;;6.05;3.92;;;12.70;10.90;;;;;;5078798;28;35840;-74
2022/08/12 05:06:24;;;;;;;4.10;3.80;;;12.80;11.00;;;;;;5085405;28;34271;-74
2022/08/12 05:08:53;;;;;;;4.93;4.43;;;12.80;11.20;;;;;;5104647;28;34230;-75
2022/08/12 05:11:23;;;;;;;5.50;4.10;;;12.80;11.10;;;;;;5085268;28;34380;-74
2022/08/12 05:13:52;;;;;;;6.07;4.28;;;12.80;11.70;;;;;;5077692;28;35819;-75
2022/08/12 05:16:18;;;;;;;4.53;3.95;;;12.90;11.30;;;;;;5079715;28;34170;-76
2022/08/12 05:18:43;;;;;;;4.45;4.00;;;12.90;11.20;;;;;;5054897;27;34369;-74
2022/08/12 05:21:09;;;;;;;4.13;3.75;;;13.00;11.30;;;;;;5088378;28;34367;-74
2022/08/12 05:23:37;;;;;;;5.70;4.47;;;12.90;11.30;;;;;;5099980;28;34581;-74
2022/08/12 05:26:03;;;;;;;5.20;4.53;;;13.00;11.40;;;;;;5082625;28;34198;-75
2022/08/12 05:28:29;;;;;;;4.93;4.30;;;13.10;11.40;;;;;;5099839;28;34107;-75
2022/08/12 05:30:57;;;;;;;4.53;4.10;;;13.10;11.30;;;;;;5086479;28;34513;-75
2022/08/12 05:33:34;;;;;;;5.55;4.10;;;13.20;11.40;;;;;;5101599;27;35406;-74
2022/08/12 05:36:00;;;;;;;4.60;4.10;;;13.30;11.30;;;;;;5103902;28;34179;-75
2022/08/12 05:41:17;;;;;;;5.13;4.15;;;13.40;11.30;;;;;;5103491;28;34226;-75
2022/08/12 05:43:46;;;;;;;4.82;4.43;;;13.50;11.30;;;;;;5090529;28;35152;-74
2022/08/12 05:46:12;;;;;;;4.93;4.00;;;13.50;11.60;;;;;;5095775;28;34162;-75
2022/08/12 05:48:38;;;;;;;4.80;4.40;;;13.60;11.30;;;;;;5103972;27;34317;-75
2022/08/12 05:51:04;;;;;;;5.43;4.72;;;13.70;11.50;;;;;;5104577;28;34225;-76
2022/08/12 05:53:30;;;;;;;6.70;4.53;;;13.70;11.40;;;;;;5102831;28;34398;-75
2022/08/12 05:56:24;;;;;;;5.93;4.38;;;13.80;11.30;;;;;;5082873;28;34372;-75
2022/08/12 05:58:58;;;;;;;5.50;4.90;;;13.90;13.50;;;;;;5081759;28;34341;-75
2022/08/12 06:01:25;;;;;;;5.32;4.25;;;14.10;11.50;;;;;;5104449;28;34372;-75
2022/08/12 06:03:52;;;;;;;5.55;4.68;;;14.20;11.30;;;;;;5085527;28;34521;-75
2022/08/12 06:06:19;;;;;;;5.47;4.95;;;14.40;11.20;;;;;;5102950;28;34222;-75
2022/08/12 06:08:49;;;;;;;5.78;4.90;;;14.60;11.10;;;;;;5085309;28;34479;-75
2022/08/12 06:11:16;;;;;;;6.20;5.30;;;15.10;10.80;;;;;;5102825;28;34230;-75
2022/08/12 06:13:43;;;;;;;6.40;5.57;;;15.60;10.10;;;;;;5102557;28;35628;-75
2022/08/12 06:16:13;;;;;;;6.43;4.85;;;16.30;9.30;;;;;;5102081;27;34411;-75
2022/08/12 06:18:40;;;;;;;5.22;4.72;;;17.10;8.60;;;;;;5096059;28;34291;-75
2022/08/12 06:21:07;;;;;;;6.57;4.20;;;17.90;7.20;;;;;;5091915;27;34214;-75
2022/08/12 06:23:34;;;;;;;4.85;4.32;;;18.70;6.00;;;;;;5101684;27;36566;-75
2022/08/12 06:26:01;;;;;;;5.90;4.47;;;19.50;4.90;;;;;;5084589;28;34384;-75
2022/08/12 06:28:29;;;;;;;4.30;3.90;;;20.30;4.60;;;;;;5068253;27;34391;-76
2022/08/12 06:31:05;;;;;;;5.75;3.72;;;21.00;3.30;;;;;;5101975;27;34355;-76
2022/08/12 06:33:33;;;;;;;5.30;3.53;;;21.70;2.70;;;;;;5099224;27;36103;-75
2022/08/12 06:36:04;;;;;;;4.53;3.55;;;22.20;1.90;;;;;;5102802;28;34276;-75
2022/08/12 06:38:31;;;;;;;7.90;4.18;;;22.80;1.30;;;;;;5081975;28;34243;-75
2022/08/12 06:43:42;;;;;;;5.97;3.95;;;23.80;1.00;;;;;;5101491;27;34157;-75
2022/08/12 06:46:08;;;;;;;8.13;3.65;;;24.40;1.00;;;;;;5104460;27;35318;-76
2022/08/12 06:48:36;;;;;;;4.88;3.65;;;24.70;1.00;;;;;;5106062;27;34339;-76
2022/08/12 06:51:03;;;;;;;4.78;3.15;;;25.00;1.00;;;;;;5105713;27;34292;-76
2022/08/12 06:53:31;;;;;;;4.72;3.33;;;25.40;1.00;;;;;;5085408;28;35837;-76
2022/08/12 06:56:06;;;;;;;6.45;3.83;;;25.60;1.00;;;;;;5105330;27;34388;-77
2022/08/12 06:58:40;;;;;;;9.45;3.50;;;25.90;1.00;;;;;;5103371;27;34385;-76
2022/08/12 07:01:26;;;;;;;9.43;3.70;;;26.20;1.00;;;;;;5105167;27;34217;-75
2022/08/12 07:04:19;;;;;;;3.95;3.30;;;26.40;1.00;;;;;;5089851;27;35632;-78
2022/08/12 07:06:54;;;;;;;4.43;3.33;;;26.60;1.00;;;;;;5067338;28;34286;-76
2022/08/12 07:09:22;;;;;;;4.90;3.47;;;26.80;1.00;;;;;;5057895;28;34445;-76
2022/08/12 07:11:48;;;;;;;28.58;4.75;;;27.00;1.00;;;;;;5059785;28;34435;-76
2022/08/12 07:14:15;;;;;;;3.88;2.90;;;27.30;1.00;;;;;;5050779;28;36369;-77
2022/08/12 07:19:22;;;;;;;5.07;3.22;;;27.60;1.00;;;;;;5085287;28;33822;-76
2022/08/12 07:21:50;;;;;;;5.53;2.80;;;27.70;1.00;;;;;;5077205;28;34195;-76
2022/08/12 07:24:16;;;;;;;3.17;2.88;;;28.00;1.00;;;;;;5090125;27;34547;-77
2022/08/12 07:26:43;;;;;;;6.28;2.83;;;28.20;1.00;;;;;;5083215;28;34548;-77
2022/08/12 07:29:35;;;;;;;5.40;2.67;;;28.40;1.00;;;;;;5084741;28;34396;-76
2022/08/12 07:32:04;;;;;;;9.07;2.60;;;28.90;1.00;;;;;;5086902;27;34177;-76
2022/08/12 07:34:30;;;;;;;4.72;2.30;;;29.10;1.00;;;;;;5071547;27;36680;-76
2022/08/12 07:37:02;;;;;;;10.23;2.67;;;29.20;1.00;;;;;;5107901;27;34227;-77
2022/08/12 07:39:29;;;;;;;5.15;2.17;;;29.40;1.00;;;;;;5099932;27;34568;-76
2022/08/12 07:41:58;;;;;;;4.70;2.25;;;29.60;1.00;;;;;;5108483;27;34591;-76
2022/08/12 07:44:27;;;;;;;3.35;1.90;;;29.80;1.00;;;;;;5092238;27;36286;-76
2022/08/12 07:46:53;;;;;;;3.85;1.90;;;29.90;1.00;;;;;;5108502;27;34489;-76
2022/08/12 07:49:20;;;;;;;5.82;2.15;;;30.10;1.00;;;;;;5127432;27;34060;-76
2022/08/12 07:51:46;;;;;;;1.95;1.85;;;30.10;1.00;;;;;;5109370;27;34160;-77
2022/08/12 07:54:17;;;;;;;2.08;1.83;;;30.20;1.00;;;;;;5108661;27;35970;-78
2022/08/12 07:56:43;;;;;;;1.95;1.75;;;30.40;1.00;;;;;;5125874;27;34247;-77
2022/08/12 07:59:13;;;;;;;2.40;2.00;;;30.50;1.00;;;;;;5109056;27;34244;-77
2022/08/12 08:01:42;;;;;;;1.70;1.60;;;30.70;1.00;;;;;;5108338;27;34244;-76
2022/08/12 08:06:52;;;;;;;4.32;1.88;;;30.70;1.00;;;;;;5110412;27;34206;-76
2022/08/12 08:09:21;;;;;;;5.28;1.80;;;30.80;1.00;;;;;;5106929;27;34131;-76
2022/08/12 08:14:39;;;;;;;3.72;1.50;;;31.10;1.00;;;;;;5110608;27;34096;-76
2022/08/12 08:17:16;;;;;;;1.98;1.83;;;31.00;1.00;;;;;;5109015;27;34071;-77
2022/08/12 08:19:42;;;;;;;4.90;1.90;;;31.10;1.00;;;;;;5107489;27;34175;-75
2022/08/12 08:22:09;;;;;;;3.20;1.50;;;31.20;1.00;;;;;;5091151;27;34503;-75
2022/08/12 08:24:35;;;;;;;3.22;1.85;;;31.40;1.00;;;;;;5107726;27;35367;-75
2022/08/12 08:27:01;;;;;;;4.43;1.65;;;31.50;1.00;;;;;;5091155;27;34401;-76
2022/08/12 08:29:28;;;;;;;1.60;1.50;;;31.50;1.00;;;;;;5108523;27;34467;-76
2022/08/12 08:31:57;;;;;;;2.47;1.90;;;31.60;1.00;;;;;;5109120;27;34294;-76
2022/08/12 08:34:25;;;;;;;3.08;1.83;;;31.70;1.00;;;;;;5109071;27;35546;-76
2022/08/12 08:36:52;;;;;;;3.20;1.70;;;31.90;1.00;;;;;;5108744;27;34304;-75
2022/08/12 08:39:23;;;;;;;1.73;1.58;;;32.00;1.00;;;;;;5108946;27;34190;-75
2022/08/12 08:44:31;;;;;;;2.25;1.65;;;32.20;1.00;;;;;;5127079;27;34242;-74
2022/08/12 08:46:57;;;;;;;1.55;1.45;;;32.20;1.00;;;;;;5108613;27;34100;-75
2022/08/12 08:49:23;;;;;;;1.83;1.60;;;32.10;1.00;;;;;;5108395;27;34251;-75
2022/08/12 08:51:49;;;;;;;1.70;1.60;;;32.30;1.00;;;;;;5107758;27;34095;-76
2022/08/12 08:54:15;;;;;;;10.77;1.95;;;32.50;1.00;;;;;;5108332;27;35739;-77
2022/08/12 08:56:43;;;;;;;2.92;1.65;;;32.50;1.00;;;;;;5108196;27;34269;-76
2022/08/12 08:59:11;;;;;;;2.08;1.88;;;32.70;1.00;;;;;;5108022;27;34299;-76
2022/08/12 09:01:38;;;;;;;2.83;1.40;;;32.70;1.00;;;;;;5107979;27;34381;-75
2022/08/12 09:04:04;;;;;;;2.47;1.60;;;32.70;1.00;;;;;;5107401;27;35727;-77
2022/08/12 09:06:32;;;;;;;1.50;1.38;;;32.80;1.00;;;;;;5107616;27;34267;-78
2022/08/12 09:08:59;;;;;;;3.65;1.40;;;32.90;1.00;;;;;;5108043;27;34166;-77
2022/08/12 09:14:10;;;;;;;3.17;1.60;;;33.20;1.00;;;;;;5125097;27;34033;-77
2022/08/12 09:16:38;;;;;;;1.98;1.60;;;33.40;1.00;;;;;;5091155;27;34018;-76
2022/08/12 09:19:06;;;;;;;2.40;1.45;;;33.50;1.00;;;;;;5107424;27;34673;-76
2022/08/12 09:21:32;;;;;;;1.77;1.30;;;33.40;1.00;;;;;;5107667;27;34525;-78
2022/08/12 09:24:00;;;;;;;2.80;1.55;;;33.40;1.00;;;;;;5106764;27;35778;-76
2022/08/12 09:26:27;;;;;;;4.38;1.58;;;33.20;1.00;;;;;;5107460;27;34194;-76
2022/08/12 09:29:00;;;;;;;3.90;1.60;;;33.40;1.00;;;;;;5107210;27;34080;-77
2022/08/12 09:31:26;;;;;;;2.33;1.40;;;33.50;1.00;;;;;;5108596;27;34193;-77
2022/08/12 09:33:54;;;;;;;2.85;1.50;;;33.50;1.00;;;;;;5107195;27;35822;-77
2022/08/12 09:36:20;;;;;;;2.85;1.52;;;33.60;1.00;;;;;;5126409;27;34135;-77
2022/08/12 09:38:47;;;;;;;1.33;1.23;;;33.70;1.00;;;;;;5107618;27;34156;-77
2022/08/12 09:41:14;;;;;;;2.42;1.20;;;33.80;1.00;;;;;;5107750;27;34188;-77
2022/08/12 09:46:29;;;;;;;1.40;1.10;;;33.90;1.00;;;;;;5125052;27;34150;-77
2022/08/12 09:48:55;;;;;;;3.85;1.35;;;34.10;1.00;;;;;;5108360;27;34144;-77
2022/08/12 09:51:21;;;;;;;5.70;1.35;;;34.20;1.00;;;;;;5090794;27;34300;-77
2022/08/12 09:53:49;;;;;;;1.50;1.40;;;34.30;1.00;;;;;;5090072;27;36427;-77
2022/08/12 09:56:17;;;;;;;3.80;1.83;;;34.20;1.00;;;;;;5107633;27;34189;-78
2022/08/12 09:58:46;;;;;;;4.95;1.33;;;34.20;1.00;;;;;;5126158;27;34334;-77
2022/08/12 10:01:12;;;;;;;1.67;1.33;;;34.40;1.00;;;;;;5108816;27;34432;-77
2022/08/12 10:03:42;;;;;;;3.17;1.13;;;34.50;1.00;;;;;;5108019;27;35685;-77
2022/08/12 10:06:09;;;;;;;2.33;1.40;;;34.60;1.00;;;;;;5107682;27;34294;-76
2022/08/12 10:08:37;;;;;;;5.05;1.50;;;34.70;1.00;;;;;;5108360;27;34291;-76
2022/08/12 10:13:48;;;;;;;1.55;1.45;;;34.70;1.00;;;;;;5095947;27;34159;-77
2022/08/12 10:16:18;;;;;;;1.30;1.20;;;34.60;1.00;;;;;;5074652;27;34095;-77
2022/08/12 10:18:49;;;;;;;6.30;2.33;;;34.50;1.00;;;;;;5106847;27;34707;-77
2022/08/12 10:21:18;;;;;;;1.27;1.13;;;34.60;1.00;;;;;;5107115;27;34577;-78
2022/08/12 10:23:46;;;;;;;1.95;1.20;;;34.70;1.00;;;;;;5107196;27;35719;-78
2022/08/12 10:31:39;;;;;;;1.10;1.10;;;35.00;1.00;;;;;;5125386;27;34017;-77
2022/08/12 10:34:08;;;;;;;1.30;1.20;;;35.00;1.00;;;;;;5107654;27;35809;-77
2022/08/12 10:36:38;;;;;;;1.45;1.35;;;35.00;1.00;;;;;;5106090;27;34153;-78
2022/08/12 10:39:06;;;;;;;2.05;1.35;;;34.90;1.00;;;;;;5106150;27;34179;-77
2022/08/12 10:44:14;;;;;;;1.23;1.13;;;35.00;1.00;;;;;;5108628;27;34595;-77
2022/08/12 10:46:41;;;;;;;1.25;1.23;;;35.00;1.00;;;;;;5107524;27;34026;-77
2022/08/12 10:49:10;;;;;;;3.17;1.17;;;35.20;1.00;;;;;;5086771;27;34195;-77
2022/08/12 10:51:37;;;;;;;1.27;1.17;;;35.20;1.00;;;;;;5125361;27;34165;-78
2022/08/12 10:54:03;;;;;;;1.67;1.58;;;35.20;1.00;;;;;;5107571;27;35752;-78
2022/08/12 10:56:31;;;;;;;4.68;1.42;;;35.40;1.00;;;;;;5107978;27;34391;-77
2022/08/12 10:59:04;;;;;;;1.30;1.20;;;35.40;1.00;;;;;;5126299;27;34157;-77
2022/08/12 11:01:31;;;;;;;1.10;1.00;;;35.40;1.00;;;;;;5103814;27;34554;-78
2022/08/12 11:04:01;;;;;;;5.75;1.35;;;35.40;1.00;;;;;;5101320;27;35796;-77
2022/08/12 11:06:27;;;;;;;1.30;1.20;;;35.40;1.00;;;;;;5107503;27;34253;-77
2022/08/12 11:08:55;;;;;;;2.10;1.23;;;35.30;1.00;;;;;;5107392;27;34102;-77
2022/08/12 11:11:24;;;;;;;1.88;1.10;;;35.30;1.00;;;;;;5120730;27;34365;-77
2022/08/12 11:13:50;;;;;;;1.73;1.40;;;35.30;1.00;;;;;;5106938;27;34863;-77
2022/08/12 11:16:16;;;;;;;2.30;1.10;;;35.10;1.00;;;;;;5106684;27;34026;-77
2022/08/12 11:18:43;;;;;;;1.30;1.20;;;35.00;1.00;;;;;;5096395;27;34377;-78
2022/08/12 11:21:08;;;;;;;8.98;1.55;;;35.10;1.00;;;;;;5103192;28;34052;-77
2022/08/12 11:23:35;;;;;;;3.63;1.10;;;35.20;1.00;;;;;;5106280;27;36719;-77
2022/08/12 11:26:01;;;;;;;8.68;1.35;;;35.10;1.00;;;;;;5089490;27;34402;-78
2022/08/12 11:28:28;;;;;;;2.10;1.15;;;35.10;1.00;;;;;;5106683;27;34372;-78
2022/08/12 11:30:55;;;;;;;2.45;1.40;;;35.10;1.00;;;;;;5107918;27;34137;-76
2022/08/12 11:33:20;;;;;;;2.58;1.40;;;35.00;1.00;;;;;;5093255;27;36418;-77
2022/08/12 11:35:46;;;;;;;3.20;1.33;;;35.20;1.00;;;;;;5116820;27;34159;-77
2022/08/12 11:38:14;;;;;;;1.20;1.10;;;35.30;1.00;;;;;;5116089;27;34093;-79
2022/08/12 11:41:03;;;;;;;1.52;1.23;;;35.50;1.00;;;;;;5106565;28;34394;-76
2022/08/12 11:43:30;;;;;;;0.90;0.90;;;35.50;1.00;;;;;;5104656;28;35766;-78
2022/08/12 11:45:56;;;;;;;1.23;1.13;;;35.50;1.00;;;;;;5089764;28;33819;-77
2022/08/12 11:48:23;;;;;;;1.42;0.82;;;35.60;1.00;;;;;;5087997;28;34334;-78
2022/08/12 11:50:49;;;;;;;1.35;0.98;;;35.50;1.00;;;;;;5072823;27;34211;-78
2022/08/12 11:53:16;;;;;;;1.30;1.20;;;35.50;1.00;;;;;;5068958;28;34615;-77
2022/08/12 11:55:42;;;;;;;1.90;1.10;;;35.50;1.00;;;;;;5088664;28;34154;-77
2022/08/12 11:58:08;;;;;;;1.98;1.08;;;35.50;1.00;;;;;;5080768;28;34249;-78
2022/08/12 12:00:35;;;;;;;1.00;1.00;;;35.50;1.00;;;;;;5106355;27;34401;-77
2022/08/12 12:03:01;;;;;;;2.88;1.05;;;35.40;1.00;;;;;;5069145;28;35762;-77
2022/08/12 12:05:27;;;;;;;1.13;1.02;;;35.50;1.00;;;;;;5061102;28;34160;-77
2022/08/12 12:07:53;;;;;;;1.20;1.10;;;35.50;1.00;;;;;;5089722;28;34239;-77
2022/08/12 12:10:20;;;;;;;0.88;0.80;;;35.50;1.00;;;;;;5089153;28;34390;-77
2022/08/12 12:12:46;;;;;;;1.58;1.38;;;35.50;1.00;;;;;;5071241;27;36238;-76
2022/08/12 12:15:13;;;;;;;0.93;0.90;;;35.40;1.00;;;;;;5077242;28;34324;-77
2022/08/12 12:17:40;;;;;;;0.90;0.90;;;35.40;1.00;;;;;;5092448;27;34143;-77
2022/08/12 12:20:09;;;;;;;1.48;1.20;;;35.50;1.00;;;;;;5110852;27;34081;-77
2022/08/12 12:22:36;;;;;;;1.63;1.10;;;35.50;1.00;;;;;;5110294;27;36229;-76
2022/08/12 12:25:04;;;;;;;1.15;1.05;;;35.40;1.00;;;;;;5112477;27;34302;-77
2022/08/12 12:27:45;;;;;;;1.30;1.20;;;35.50;1.00;;;;;;5111048;27;34196;-76
2022/08/12 12:30:11;;;;;;;3.13;1.10;;;35.70;1.00;;;;;;5115516;27;34442;-77
2022/08/12 12:32:37;;;;;;;1.50;1.17;;;35.90;1.00;;;;;;5085474;27;35871;-77
2022/08/12 12:35:04;;;;;;;1.33;1.10;;;35.70;1.00;;;;;;5111641;27;34186;-78
2022/08/12 12:38:10;;;;;;;3.47;1.20;;;35.40;1.00;;;;;;5092184;27;34226;-77
2022/08/12 12:41:01;;;;;;;5.03;1.50;;;35.40;1.00;;;;;;5060165;28;34280;-77
2022/08/12 12:43:30;;;;;;;3.60;1.20;;;35.50;1.00;;;;;;5048348;28;35965;-77
2022/08/12 12:46:01;;;;;;;1.35;0.88;;;35.50;1.00;;;;;;5042754;28;34224;-76
2022/08/12 12:48:28;;;;;;;7.13;1.20;;;35.40;1.00;;;;;;5077262;28;35969;-76
2022/08/12 12:53:38;;;;;;;0.90;0.88;;;35.50;1.00;;;;;;5072406;28;34260;-78
2022/08/12 12:56:09;;;;;;;1.20;1.10;;;35.50;1.00;;;;;;5072901;28;34142;-79
2022/08/12 12:58:36;;;;;;;0.73;0.73;;;35.50;1.00;;;;;;5048768;28;34155;-78
2022/08/12 13:01:03;;;;;;;1.08;0.98;;;35.40;1.00;;;;;;5068127;28;34566;-76
2022/08/12 13:03:34;;;;;;;1.15;0.82;;;35.40;1.00;;;;;;5068257;28;35209;-76
2022/08/12 13:06:01;;;;;;;1.73;1.00;;;35.40;1.00;;;;;;5085657;28;34234;-77
2022/08/12 13:08:30;;;;;;;1.90;1.00;;;35.40;1.00;;;;;;5067439;28;34251;-78
2022/08/12 13:10:59;;;;;;;1.00;1.00;;;35.50;1.00;;;;;;5067406;28;34542;-78
2022/08/12 13:13:28;;;;;;;2.85;1.25;;;35.50;1.00;;;;;;5066742;28;35746;-78
2022/08/12 13:15:55;;;;;;;1.65;1.13;;;35.50;1.00;;;;;;5062896;28;34333;-77
2022/08/12 13:18:24;;;;;;;1.70;1.10;;;35.40;1.00;;;;;;5064037;28;34379;-76
2022/08/12 13:20:51;;;;;;;1.10;1.10;;;35.40;1.00;;;;;;5046211;28;34122;-78
2022/08/12 13:23:19;;;;;;;2.83;1.10;;;35.40;1.00;;;;;;5071152;28;36191;-79
2022/08/12 13:25:46;;;;;;;3.63;1.10;;;35.50;1.00;;;;;;5060054;28;34362;-77
2022/08/12 13:28:21;;;;;;;1.00;0.90;;;35.50;1.00;;;;;;5071114;28;34181;-77
2022/08/12 13:30:51;;;;;;;1.25;1.00;;;35.40;1.00;;;;;;5048538;28;34110;-77
2022/08/12 13:33:24;;;;;;;3.05;1.23;;;35.40;1.00;;;;;;5075884;28;34440;-75
2022/08/12 13:35:52;;;;;;;1.65;0.80;;;35.40;1.00;;;;;;5076306;28;33951;-77
2022/08/12 13:38:26;;;;;;;1.40;1.30;;;35.40;1.00;;;;;;5068518;28;34433;-77
2022/08/12 13:40:57;;;;;;;1.13;0.93;;;35.30;1.00;;;;;;5064038;28;34306;-77
2022/08/12 13:43:23;;;;;;;1.77;0.90;;;35.40;1.00;;;;;;5063066;28;34276;-76
2022/08/12 13:45:50;;;;;;;5.35;1.85;;;35.40;1.00;;;;;;5064232;28;34265;-75
2022/08/12 13:48:16;;;;;;;2.22;0.90;;;35.50;1.00;;;;;;5063764;28;34157;-75
2022/08/12 13:50:42;;;;;;;12.30;1.50;;;35.50;1.00;;;;;;5076576;28;34369;-75
2022/08/12 13:53:11;;;;;;;3.20;1.00;;;35.40;1.00;;;;;;5081895;28;35982;-76
2022/08/12 13:55:42;;;;;;;6.40;1.13;;;35.30;1.00;;;;;;5082171;28;34193;-76
2022/08/12 13:58:10;;;;;;;3.00;1.10;;;35.30;1.00;;;;;;5050083;28;33853;-76
2022/08/12 14:00:37;;;;;;;2.22;1.17;;;35.30;1.00;;;;;;5065259;28;34163;-76
2022/08/12 14:03:04;;;;;;;2.92;1.13;;;35.20;1.00;;;;;;5099721;27;35759;-76
2022/08/12 14:05:32;;;;;;;1.92;0.75;;;35.20;1.00;;;;;;5107174;27;34223;-77
2022/08/12 14:08:02;;;;;;;4.05;1.23;;;35.20;1.00;;;;;;5107485;27;34258;-76
2022/08/12 14:10:38;;;;;;;1.15;1.02;;;35.20;1.00;;;;;;5126089;27;34099;-77
2022/08/12 14:13:10;;;;;;;4.15;1.20;;;35.20;1.00;;;;;;5110089;27;36045;-77
2022/08/12 14:15:41;;;;;;;3.00;0.95;;;35.30;1.00;;;;;;5108761;27;34179;-76
2022/08/12 14:18:12;;;;;;;2.33;0.95;;;35.20;1.00;;;;;;5088084;27;34299;-76
2022/08/12 14:20:41;;;;;;;0.95;0.90;;;35.20;1.00;;;;;;5111656;27;34219;-75
2022/08/12 14:23:07;;;;;;;1.00;0.93;;;35.30;1.00;;;;;;5109748;27;35771;-78
2022/08/12 14:25:33;;;;;;;1.42;1.02;;;35.40;1.00;;;;;;5099286;27;34267;-76
2022/08/12 14:28:10;;;;;;;1.30;0.90;;;35.40;1.00;;;;;;5125260;27;34342;-77
2022/08/12 14:30:52;;;;;;;1.65;0.90;;;35.40;1.00;;;;;;5098229;27;34261;-77
2022/08/12 14:33:20;;;;;;;2.65;1.15;;;35.40;1.00;;;;;;5106331;27;35776;-76
2022/08/12 14:35:47;;;;;;;1.92;0.88;;;35.40;1.00;;;;;;5100579;28;34228;-77
2022/08/12 14:38:21;;;;;;;0.90;0.90;;;35.30;1.00;;;;;;5090733;27;33745;-76
2022/08/12 14:40:51;;;;;;;1.05;0.95;;;35.40;1.00;;;;;;5118590;27;34453;-76
2022/08/12 14:43:18;;;;;;;2.03;0.93;;;35.40;1.00;;;;;;5092968;27;35981;-77
2022/08/12 14:45:45;;;;;;;2.05;1.20;;;35.40;1.00;;;;;;5125375;27;34341;-77
2022/08/12 14:48:12;;;;;;;8.18;1.45;;;35.20;1.00;;;;;;5122480;27;34270;-77
2022/08/12 14:50:39;;;;;;;0.82;0.80;;;35.20;1.00;;;;;;5073797;28;34364;-76
2022/08/12 14:53:09;;;;;;;1.98;1.15;;;35.20;1.00;;;;;;5072681;27;36520;-76
2022/08/12 14:55:39;;;;;;;2.50;1.00;;;35.10;1.00;;;;;;5112151;27;34344;-78
2022/08/12 14:58:06;;;;;;;0.70;0.70;;;35.00;1.00;;;;;;5088346;27;34332;-76
2022/08/12 15:03:14;;;;;;;0.73;0.73;;;34.90;1.00;;;;;;5102020;27;34071;-75
2022/08/12 15:05:43;;;;;;;1.75;0.90;;;34.90;1.00;;;;;;5097482;27;34172;-74
2022/08/12 15:08:12;;;;;;;0.85;0.85;;;34.90;1.00;;;;;;5120027;27;34334;-75